VOHY/HYD METAR and TAF weather

Enter ICAO airport designator
Station Type Date Time Source
VOHY METAR 2021/05/13 06:00 UTC NOAA

VOHY 130600Z 26004KT 6000 NSC 36/19 Q1009 NOSIG


Station Type Date Time Source
VOHY Decoded METAR 2021/05/13 06:00 UTC NOAA

Hyderabad Airport, India (VOHY) 17-27N 078-28E 545M
May 13, 2021 - 02:00 AM EDT / 2021.05.13 0600 UTC
Wind: from the W (260 degrees) at 5 MPH (4 KT):0
Visibility: 3 mile(s):0
Temperature: 96 F (36 C)
Heat index: 98.6 F (37.0 C):1
Dew Point: 66 F (19 C)
Relative Humidity: 36%
Pressure (altimeter): 29.80 in. Hg (1009 hPa)
ob: VOHY 130600Z 26004KT 6000 NSC 36/19 Q1009 NOSIG
cycle: 6

Station Type Date Time Source
VOHY TAF 2021/05/11 09:00 UTC NOAA

TAF VOHY 110800Z 1109/1118 21006KT 6000 SCT020 SCT025
TEMPO 1110/1115 TSRA RA SCT020 SCT025 FEW030CB

Example: see airport list